Time;durP1;ratioP1;P1;durP2;ratioP2;P2;SDS_P1;SDS_P2;PMS_P1;PMS_P2;Temp;Humidity;BMP_temperature;BMP_pressure;BME280_temperature;BME280_humidity;BME280_pressure;Samples;Min_cycle;Max_cycle;Signal;HPM_P1;HPM_P2
2023/12/03 00:01:38;;;;;;;;;27.00;24.50;;;;;2.79;57.43;101853.88;5059229;28;69276;-62
2023/12/03 00:04:04;;;;;;;;;24.00;22.00;;;;;2.78;57.44;101854.78;5066268;28;69251;-62
2023/12/03 00:06:29;;;;;;;;;28.25;22.75;;;;;2.78;57.38;101854.78;5059837;28;74525;-61
2023/12/03 00:08:54;;;;;;;;;28.75;21.00;;;;;2.77;57.59;101853.91;5059502;28;73376;-61
2023/12/03 00:11:20;;;;;;;;;25.00;23.25;;;;;2.76;57.22;101848.66;5061419;28;45390;-61
2023/12/03 00:13:45;;;;;;;;;25.75;20.00;;;;;2.77;57.40;101853.91;5067079;28;66120;-61
2023/12/03 00:16:10;;;;;;;;;29.75;21.50;;;;;2.77;57.20;101847.78;5070501;28;74595;-61
2023/12/03 00:18:36;;;;;;;;;24.50;21.00;;;;;2.77;57.05;101855.66;5062820;28;59179;-61
2023/12/03 00:21:01;;;;;;;;;21.00;15.25;;;;;2.75;56.93;101855.66;5068333;28;46799;-61
2023/12/03 00:23:26;;;;;;;;;24.25;22.50;;;;;2.76;57.02;101861.78;5063651;28;55513;-62
2023/12/03 00:25:51;;;;;;;;;30.00;23.25;;;;;2.74;57.11;101853.91;5067193;28;75169;-62
2023/12/03 00:28:17;;;;;;;;;29.25;22.50;;;;;2.73;56.94;101854.78;5067222;28;69100;-62
2023/12/03 00:30:43;;;;;;;;;18.25;15.50;;;;;2.71;57.32;101866.16;5061963;28;45612;-62
2023/12/03 00:33:08;;;;;;;;;31.75;30.25;;;;;2.69;57.39;101860.91;5059909;28;45576;-61
2023/12/03 00:35:33;;;;;;;;;36.25;32.50;;;;;2.68;57.38;101864.41;5059572;28;75471;-61
2023/12/03 00:37:58;;;;;;;;;36.25;29.75;;;;;2.65;57.61;101865.28;5067448;28;71930;-62
2023/12/03 00:40:24;;;;;;;;;39.00;31.50;;;;;2.62;57.56;101860.06;5061368;28;45465;-61
2023/12/03 00:42:50;;;;;;;;;40.00;32.00;;;;;2.62;57.60;101865.31;5061848;28;56685;-62
2023/12/03 00:45:15;;;;;;;;;39.00;30.00;;;;;2.59;57.97;101865.28;5062439;28;46223;-61
2023/12/03 00:47:41;;;;;;;;;20.50;17.00;;;;;2.58;57.87;101868.81;5060801;28;45346;-61
2023/12/03 00:50:07;;;;;;;;;29.25;26.00;;;;;2.57;57.69;101859.16;5060827;28;50355;-61
2023/12/03 00:52:32;;;;;;;;;20.00;18.50;;;;;2.56;57.75;101853.94;5061168;28;45585;-61
2023/12/03 00:54:57;;;;;;;;;24.75;24.75;;;;;2.54;57.79;101855.66;5059302;28;75687;-61
2023/12/03 00:57:23;;;;;;;;;29.25;23.50;;;;;2.53;57.89;101856.53;5060713;28;45469;-62
2023/12/03 00:59:48;;;;;;;;;25.75;21.75;;;;;2.52;57.79;101846.94;5059768;28;67088;-61
2023/12/03 01:02:13;;;;;;;;;22.75;21.50;;;;;2.48;57.84;101846.91;5060358;28;45457;-61
2023/12/03 01:04:39;;;;;;;;;28.50;20.75;;;;;2.48;57.92;101843.41;5058897;28;45399;-61
2023/12/03 01:07:04;;;;;;;;;18.75;17.00;;;;;2.50;58.17;101846.03;5059685;28;50545;-61
2023/12/03 01:09:30;;;;;;;;;30.50;24.50;;;;;2.50;58.35;101848.66;5059472;28;68370;-61
2023/12/03 01:11:57;;;;;;;;;30.25;23.50;;;;;2.48;58.38;101844.28;5060266;28;45627;-61
2023/12/03 01:14:23;;;;;;;;;24.50;21.75;;;;;2.44;58.29;101850.41;5060327;28;45312;-61
2023/12/03 01:16:48;;;;;;;;;34.75;24.75;;;;;2.42;58.03;101846.03;5060207;28;45242;-61
2023/12/03 01:19:14;;;;;;;;;21.75;19.25;;;;;2.40;58.08;101846.03;5060257;28;46148;-61
2023/12/03 01:21:39;;;;;;;;;30.75;18.50;;;;;2.36;58.00;101841.66;5059116;28;68456;-62
2023/12/03 01:24:04;;;;;;;;;24.75;18.25;;;;;2.36;58.03;101841.66;5057278;28;75093;-61
2023/12/03 01:26:30;;;;;;;;;18.75;13.50;;;;;2.36;58.15;101846.03;5059209;28;73654;-62
2023/12/03 01:28:56;;;;;;;;;21.25;17.75;;;;;2.37;58.48;101845.16;5091770;27;68238;-61
2023/12/03 01:31:21;;;;;;;;;21.75;18.00;;;;;2.35;58.42;101842.53;5060196;28;46113;-62
2023/12/03 01:33:46;;;;;;;;;20.00;17.50;;;;;2.35;58.70;101845.16;5059220;28;74502;-61
2023/12/03 01:36:12;;;;;;;;;21.50;18.25;;;;;2.35;58.76;101845.16;5058528;28;73474;-62
2023/12/03 01:38:37;;;;;;;;;27.00;24.25;;;;;2.32;58.81;101853.00;5059290;28;69457;-62
2023/12/03 01:41:02;;;;;;;;;28.75;23.00;;;;;2.33;59.03;101844.25;5058834;28;69417;-61
2023/12/03 01:43:28;;;;;;;;;22.00;20.25;;;;;2.32;58.74;101845.13;5057724;28;46726;-61
2023/12/03 01:45:53;;;;;;;;;26.00;19.25;;;;;2.31;58.75;101840.78;5057688;28;45359;-61
2023/12/03 01:48:18;;;;;;;;;24.50;23.50;;;;;2.32;58.80;101845.13;5056832;28;69222;-61
2023/12/03 01:50:44;;;;;;;;;26.00;19.25;;;;;2.31;58.84;101838.16;5062222;28;69426;-60
2023/12/03 01:53:10;;;;;;;;;25.00;21.50;;;;;2.30;58.73;101839.03;5058005;28;45405;-61
2023/12/03 01:55:35;;;;;;;;;20.00;17.25;;;;;2.27;59.01;101837.28;5060121;28;74901;-62
2023/12/03 01:58:00;;;;;;;;;25.50;23.25;;;;;2.25;58.94;101833.75;5057959;28;63329;-61
2023/12/03 02:00:26;;;;;;;;;25.75;22.75;;;;;2.24;59.02;101846.88;5057019;28;69859;-61
2023/12/03 02:02:51;;;;;;;;;23.50;18.50;;;;;2.23;58.85;101848.66;5058310;28;75535;-61
2023/12/03 02:05:16;;;;;;;;;20.00;17.50;;;;;2.23;58.95;101850.38;5058526;28;46815;-62
2023/12/03 02:07:42;;;;;;;;;20.75;19.75;;;;;2.21;58.59;101836.38;5058681;28;68106;-62
2023/12/03 02:10:08;;;;;;;;;24.00;16.50;;;;;2.20;58.84;101832.00;5058487;28;70428;-62
2023/12/03 02:12:33;;;;;;;;;20.50;16.50;;;;;2.18;58.87;101824.13;5059365;28;47464;-62
2023/12/03 02:14:58;;;;;;;;;27.50;23.25;;;;;2.18;58.83;101823.25;5090888;27;71988;-62
2023/12/03 02:17:24;;;;;;;;;17.00;13.50;;;;;2.17;59.10;101832.00;5060031;28;45514;-62
2023/12/03 02:19:49;;;;;;;;;20.75;17.25;;;;;2.15;58.86;101827.63;5059631;28;45387;-63
2023/12/03 02:22:14;;;;;;;;;22.00;16.00;;;;;2.15;58.97;101829.34;5058095;28;75689;-62
2023/12/03 02:24:40;;;;;;;;;26.00;22.75;;;;;2.12;58.33;101832.00;5058119;28;72191;-62
2023/12/03 02:27:05;;;;;;;;;28.25;23.00;;;;;2.07;58.13;101834.59;5058460;28;69335;-62
2023/12/03 02:29:30;;;;;;;;;26.00;17.75;;;;;2.05;58.42;101846.00;5059293;28;45596;-63
2023/12/03 02:31:56;;;;;;;;;27.50;21.50;;;;;2.06;58.16;101842.47;5059145;28;52792;-62
2023/12/03 02:34:21;;;;;;;;;26.25;19.00;;;;;2.07;58.67;101842.47;5059312;28;45701;-62
2023/12/03 02:36:46;;;;;;;;;23.50;16.75;;;;;2.10;58.78;101833.72;5057413;28;68411;-62
2023/12/03 02:39:12;;;;;;;;;25.50;18.75;;;;;2.12;58.59;101832.00;5058331;28;54493;-63
2023/12/03 02:41:37;;;;;;;;;19.00;16.00;;;;;2.12;58.64;101824.13;5059354;28;45216;-62
2023/12/03 02:44:03;;;;;;;;;23.25;19.25;;;;;2.11;58.74;101833.75;5057492;28;70297;-62
2023/12/03 02:46:28;;;;;;;;;24.25;16.75;;;;;2.13;58.72;101834.63;5059559;28;45370;-62
2023/12/03 02:48:53;;;;;;;;;23.75;19.00;;;;;2.13;58.81;101825.88;5091193;27;53269;-63
2023/12/03 02:51:19;;;;;;;;;28.75;20.50;;;;;2.14;58.39;101823.25;5058157;28;75656;-63
2023/12/03 02:53:45;;;;;;;;;24.50;18.50;;;;;2.15;58.80;101821.47;5059023;28;45390;-63
2023/12/03 02:56:12;;;;;;;;;26.75;17.50;;;;;2.16;58.66;101820.63;5058498;28;45411;-62
2023/12/03 02:58:37;;;;;;;;;22.25;18.75;;;;;2.17;58.86;101817.13;5057865;28;45400;-63
2023/12/03 03:01:03;;;;;;;;;19.25;17.75;;;;;2.18;58.42;101825.88;5058065;28;47429;-62
2023/12/03 03:03:29;;;;;;;;;22.75;18.00;;;;;2.17;58.40;101818.88;5057479;28;45444;-63
2023/12/03 03:05:54;;;;;;;;;21.50;17.75;;;;;2.20;58.61;101824.13;5061570;28;45255;-62
2023/12/03 03:08:19;;;;;;;;;20.50;18.00;;;;;2.22;58.58;101822.41;5057631;28;65493;-62
2023/12/03 03:10:44;;;;;;;;;19.75;19.75;;;;;2.24;58.86;101826.78;5057785;28;74703;-62
2023/12/03 03:13:10;;;;;;;;;18.25;17.00;;;;;2.26;58.80;101827.63;5057266;28;72754;-63
2023/12/03 03:15:35;;;;;;;;;17.25;14.25;;;;;2.30;58.80;101829.38;5058984;28;45299;-62
2023/12/03 03:18:01;;;;;;;;;17.75;15.50;;;;;2.33;58.73;101825.03;5057976;28;54253;-62
2023/12/03 03:20:27;;;;;;;;;24.75;15.75;;;;;2.37;58.62;101829.41;5058178;28;59157;-62
2023/12/03 03:22:52;;;;;;;;;14.00;13.25;;;;;2.38;58.58;101833.78;5056903;28;73925;-62
2023/12/03 03:25:18;;;;;;;;;15.75;13.75;;;;;2.38;58.67;101837.25;5058397;28;63557;-62
2023/12/03 03:27:43;;;;;;;;;20.25;14.75;;;;;2.40;58.58;101839.88;5057843;28;63139;-62
2023/12/03 03:30:09;;;;;;;;;18.00;14.00;;;;;2.43;58.09;101842.53;5058267;28;46226;-62
2023/12/03 03:32:35;;;;;;;;;23.50;15.75;;;;;2.46;58.22;101840.78;5057193;28;45403;-62
2023/12/03 03:35:00;;;;;;;;;18.25;12.00;;;;;2.51;57.96;101826.78;5058157;28;45302;-62
2023/12/03 03:37:25;;;;;;;;;22.00;16.00;;;;;2.56;57.37;101832.91;5058588;28;45430;-62
2023/12/03 03:39:51;;;;;;;;;17.75;14.25;;;;;2.55;56.87;101832.00;5057465;28;70882;-62
2023/12/03 03:42:16;;;;;;;;;15.50;13.00;;;;;2.56;57.32;101831.16;5058445;28;45363;-67
2023/12/03 03:44:42;;;;;;;;;17.25;15.50;;;;;2.57;56.88;101825.03;5057327;28;63109;-62
2023/12/03 03:47:07;;;;;;;;;15.75;14.75;;;;;2.55;56.59;101825.91;5058099;28;45453;-63
2023/12/03 03:49:32;;;;;;;;;16.75;16.50;;;;;2.48;56.86;101823.25;5058169;28;45343;-63
2023/12/03 03:51:58;;;;;;;;;24.50;19.25;;;;;2.44;56.71;101824.16;5057982;28;45410;-62
2023/12/03 03:54:23;;;;;;;;;21.75;18.50;;;;;2.39;56.73;101825.91;5058175;28;45486;-62
2023/12/03 03:56:49;;;;;;;;;24.25;22.25;;;;;2.33;56.80;101825.88;5057769;28;67365;-62
2023/12/03 03:59:14;;;;;;;;;18.50;16.50;;;;;2.35;57.12;101818.00;5057664;28;46328;-62
2023/12/03 04:01:43;;;;;;;;;18.75;16.25;;;;;2.39;57.42;101814.53;5057641;28;65803;-63
2023/12/03 04:04:09;;;;;;;;;24.25;18.25;;;;;2.38;57.10;101800.50;5058978;28;45538;-62
2023/12/03 04:06:39;;;;;;;;;37.50;21.50;;;;;2.38;56.97;101805.75;5058450;28;45369;-63
2023/12/03 04:09:04;;;;;;;;;22.50;18.75;;;;;2.32;57.03;101800.50;5057219;28;45369;-63
2023/12/03 04:11:29;;;;;;;;;24.75;18.50;;;;;2.21;57.20;101808.38;5057005;28;73263;-62
2023/12/03 04:13:55;;;;;;;;;25.00;20.25;;;;;2.17;57.56;101800.50;5056688;28;66688;-62
2023/12/03 04:16:22;;;;;;;;;27.50;20.00;;;;;2.11;57.42;101804.88;5056082;28;70898;-63
2023/12/03 04:18:47;;;;;;;;;25.00;21.50;;;;;2.07;57.22;101808.34;5057016;28;45613;-62
2023/12/03 04:21:15;;;;;;;;;18.50;15.25;;;;;2.09;57.83;101811.00;5058088;28;72852;-62
2023/12/03 04:23:41;;;;;;;;;24.00;15.25;;;;;2.09;57.75;101818.88;5059155;28;68690;-62
2023/12/03 04:26:09;;;;;;;;;25.50;14.25;;;;;2.07;57.63;101813.59;5059259;28;72165;-62
2023/12/03 04:28:35;;;;;;;;;17.00;16.75;;;;;2.08;57.67;101825.84;5061134;28;46362;-62
2023/12/03 04:31:00;;;;;;;;;16.00;12.00;;;;;2.07;57.45;101820.59;5060459;28;45251;-63
2023/12/03 04:33:25;;;;;;;;;20.75;17.50;;;;;2.05;57.62;101815.38;5059325;28;67114;-62
2023/12/03 04:35:51;;;;;;;;;18.25;16.00;;;;;2.03;57.81;101808.34;5061239;28;45244;-62
2023/12/03 04:38:16;;;;;;;;;21.50;17.75;;;;;2.03;57.56;101816.22;5060863;28;45685;-62
2023/12/03 04:40:41;;;;;;;;;25.50;17.00;;;;;2.01;57.92;101815.34;5062013;28;73162;-61
2023/12/03 04:43:07;;;;;;;;;22.75;20.25;;;;;1.96;57.88;101815.34;5059284;28;69429;-62
2023/12/03 04:45:32;;;;;;;;;24.25;19.75;;;;;1.89;57.71;101814.47;5059803;28;69423;-61
2023/12/03 04:47:57;;;;;;;;;24.00;20.75;;;;;1.87;58.17;101810.09;5059502;28;71032;-62
2023/12/03 04:50:23;;;;;;;;;25.25;22.25;;;;;1.81;58.17;101805.69;5060813;28;45289;-61
2023/12/03 04:52:48;;;;;;;;;25.75;19.25;;;;;1.82;58.05;101812.69;5059945;28;67194;-61
2023/12/03 04:55:13;;;;;;;;;15.50;14.25;;;;;1.85;58.35;101815.31;5058769;28;45439;-63
2023/12/03 04:57:39;;;;;;;;;21.50;18.00;;;;;1.90;58.35;101816.19;5060741;28;46078;-62
2023/12/03 05:00:07;;;;;;;;;23.75;17.75;;;;;1.93;58.79;101810.06;5059524;28;70624;-62
2023/12/03 05:02:32;;;;;;;;;16.00;13.00;;;;;1.95;58.39;101805.72;5060671;28;45471;-62
2023/12/03 05:04:57;;;;;;;;;19.75;19.50;;;;;1.98;58.70;101808.34;5060118;28;58865;-61
2023/12/03 05:07:23;;;;;;;;;34.75;25.75;;;;;1.90;58.46;101808.31;5060224;28;46344;-62
2023/12/03 05:09:48;;;;;;;;;21.25;16.75;;;;;1.92;58.87;101808.34;5060833;28;45233;-61
2023/12/03 05:12:13;;;;;;;;;33.00;27.00;;;;;1.95;58.76;101798.72;5059522;28;57058;-62
2023/12/03 05:14:39;;;;;;;;;27.50;20.00;;;;;1.94;58.62;101799.59;5059711;28;69406;-61
2023/12/03 05:17:05;;;;;;;;;27.75;22.75;;;;;1.90;58.74;101810.94;5060095;28;45261;-62
2023/12/03 05:19:30;;;;;;;;;21.75;18.25;;;;;1.93;58.68;101802.19;5060615;28;45232;-61
2023/12/03 05:21:56;;;;;;;;;16.75;16.75;;;;;1.96;58.60;101796.97;5058812;28;69314;-62
2023/12/03 05:24:21;;;;;;;;;35.75;22.50;;;;;1.96;59.15;101802.22;5060016;28;55770;-62
2023/12/03 05:26:46;;;;;;;;;25.50;20.00;;;;;1.96;58.92;101797.84;5059626;28;71159;-61
2023/12/03 05:29:11;;;;;;;;;24.50;20.75;;;;;1.96;58.76;101791.72;5059536;28;59945;-62
2023/12/03 05:31:44;;;;;;;;;22.00;20.00;;;;;2.00;59.19;101784.75;5059607;28;66673;-61
2023/12/03 05:34:09;;;;;;;;;27.75;19.00;;;;;2.09;59.35;101764.63;5060132;28;45316;-62
2023/12/03 05:36:34;;;;;;;;;31.75;23.50;;;;;2.14;59.05;101767.25;5059594;28;60082;-61
2023/12/03 05:38:59;;;;;;;;;20.75;18.00;;;;;2.07;59.29;101776.84;5058771;28;73326;-62
2023/12/03 05:41:25;;;;;;;;;24.25;21.75;;;;;2.10;59.16;101775.97;5059073;28;68284;-65
2023/12/03 05:43:51;;;;;;;;;22.25;11.00;;;;;2.05;59.12;101777.75;5059419;28;70280;-61
2023/12/03 05:46:16;;;;;;;;;32.50;27.75;;;;;2.04;59.47;101771.59;5059676;28;47335;-61
2023/12/03 05:48:42;;;;;;;;;38.75;27.25;;;;;2.04;59.47;101771.59;5059225;28;71842;-61
2023/12/03 05:51:11;;;;;;;;;31.75;24.25;;;;;2.03;59.67;101772.47;5059483;28;45225;-61
2023/12/03 05:53:36;;;;;;;;;28.25;21.25;;;;;2.04;59.64;101776.84;5075510;28;45459;-61
2023/12/03 05:56:02;;;;;;;;;33.00;26.50;;;;;2.06;59.38;101774.22;5059016;28;46147;-61
2023/12/03 05:58:27;;;;;;;;;32.50;23.00;;;;;2.04;59.72;101770.75;5092670;27;45390;-61
2023/12/03 06:00:53;;;;;;;;;31.75;23.25;;;;;2.05;59.98;101773.38;5058080;28;45603;-61
2023/12/03 06:03:18;;;;;;;;;31.50;30.00;;;;;2.11;59.68;101783.88;5059359;28;62746;-61
2023/12/03 06:05:43;;;;;;;;;33.25;26.50;;;;;2.11;59.89;101789.13;5058788;28;75700;-61
2023/12/03 06:08:08;;;;;;;;;30.00;24.75;;;;;2.10;59.89;101781.22;5056966;28;68575;-61
2023/12/03 06:10:34;;;;;;;;;36.50;23.00;;;;;2.04;59.83;101773.38;5058831;28;69230;-61
2023/12/03 06:12:59;;;;;;;;;28.25;22.00;;;;;2.04;59.69;101771.59;5058518;28;69450;-61
2023/12/03 06:15:25;;;;;;;;;34.75;28.00;;;;;1.97;60.58;101770.72;5089890;27;75561;-62
2023/12/03 06:17:50;;;;;;;;;28.25;25.00;;;;;1.95;59.57;101769.84;5072772;28;47596;-61
2023/12/03 06:20:16;;;;;;;;;32.50;26.25;;;;;1.93;60.26;101766.34;5058144;28;63849;-61
2023/12/03 06:22:41;;;;;;;;;29.25;19.00;;;;;1.95;60.51;101768.97;5058599;28;70374;-62
2023/12/03 06:25:08;;;;;;;;;28.75;27.25;;;;;1.93;60.89;101762.84;5057941;28;75012;-61
2023/12/03 06:27:34;;;;;;;;;6.50;3.00;;;;;1.94;60.66;101756.72;5058386;28;45856;-61
2023/12/03 06:29:59;;;;;;;;;33.00;23.00;;;;;2.01;60.85;101750.63;5058780;28;45346;-61
2023/12/03 06:32:25;;;;;;;;;26.00;21.25;;;;;2.08;60.23;101768.09;5056946;28;69132;-61
2023/12/03 06:34:50;;;;;;;;;27.75;23.25;;;;;2.11;60.49;101762.88;5057500;28;76661;-62
2023/12/03 06:37:15;;;;;;;;;27.50;22.50;;;;;2.16;60.35;101770.75;5058138;28;69745;-61
2023/12/03 06:39:40;;;;;;;;;40.00;29.00;;;;;2.14;60.11;101760.25;5059152;28;45505;-61
2023/12/03 06:42:06;;;;;;;;;25.75;22.00;;;;;2.13;60.22;101766.38;5057981;28;69414;-62
2023/12/03 06:44:31;;;;;;;;;45.00;27.25;;;;;2.12;60.65;101774.25;5063971;28;45426;-61
2023/12/03 06:46:57;;;;;;;;;41.75;34.00;;;;;2.07;60.75;101766.34;5058506;28;45626;-62
2023/12/03 06:49:22;;;;;;;;;29.75;28.25;;;;;2.07;60.66;101750.59;5058373;28;69245;-61
2023/12/03 06:51:47;;;;;;;;;26.25;20.25;;;;;2.13;60.96;101758.47;5057718;28;62924;-61
2023/12/03 06:54:14;;;;;;;;;32.75;24.25;;;;;2.18;60.69;101754.97;5058555;28;46543;-61
2023/12/03 06:56:39;;;;;;;;;32.25;26.00;;;;;2.21;60.56;101758.50;5057195;28;45792;-61
2023/12/03 06:59:04;;;;;;;;;27.50;22.50;;;;;2.18;60.63;101763.75;5088425;27;68426;-64
2023/12/03 07:01:30;;;;;;;;;35.00;27.00;;;;;2.19;60.49;101767.25;5058910;28;45468;-62
2023/12/03 07:03:55;;;;;;;;;33.75;29.25;;;;;2.19;60.64;101765.50;5056995;28;74332;-61
2023/12/03 07:06:20;;;;;;;;;27.50;22.00;;;;;2.20;60.46;101771.63;5058563;28;73190;-61
2023/12/03 07:08:46;;;;;;;;;31.75;23.25;;;;;2.23;60.78;101772.50;5057786;28;65513;-61
2023/12/03 07:11:13;;;;;;;;;38.00;31.25;;;;;2.26;60.29;101776.88;5090993;27;70353;-62
2023/12/03 07:13:38;;;;;;;;;24.00;21.75;;;;;2.30;60.99;101768.13;5057606;28;47267;-61
2023/12/03 07:16:04;;;;;;;;;32.00;24.50;;;;;2.32;60.43;101774.22;5058234;28;45280;-61
2023/12/03 07:18:29;;;;;;;;;24.00;18.25;;;;;2.33;60.20;101769.88;5090603;27;45365;-62
2023/12/03 07:20:55;;;;;;;;;23.25;21.50;;;;;2.36;60.29;101770.75;5067953;28;45370;-62
2023/12/03 07:23:20;;;;;;;;;24.50;22.00;;;;;2.31;59.94;101767.25;5057736;28;45645;-63
2023/12/03 07:25:46;;;;;;;;;25.75;21.75;;;;;2.28;60.24;101761.97;5058844;28;45587;-61
2023/12/03 07:28:11;;;;;;;;;26.00;24.00;;;;;2.31;60.08;101764.63;5089732;27;63597;-61
2023/12/03 07:30:37;;;;;;;;;23.00;16.50;;;;;2.33;60.25;101773.38;5056827;28;62773;-61
2023/12/03 07:33:03;;;;;;;;;22.25;20.50;;;;;2.36;60.40;101783.88;5056537;28;48193;-62
2023/12/03 07:35:28;;;;;;;;;31.50;23.25;;;;;2.38;59.70;101778.63;5057316;28;45427;-61
2023/12/03 07:37:55;;;;;;;;;30.50;22.75;;;;;2.37;60.33;101784.75;5056351;28;45312;-61
2023/12/03 07:40:20;;;;;;;;;30.50;21.00;;;;;2.40;60.13;101783.00;5058949;28;45908;-61
2023/12/03 07:42:45;;;;;;;;;25.75;23.00;;;;;2.39;60.34;101775.13;5057037;28;74103;-62
2023/12/03 07:45:11;;;;;;;;;29.75;21.25;;;;;2.41;60.23;101783.88;5055533;28;75096;-62
2023/12/03 07:47:36;;;;;;;;;27.75;20.50;;;;;2.47;60.00;101782.09;5054986;28;69204;-62
2023/12/03 07:50:01;;;;;;;;;32.25;24.50;;;;;2.52;59.91;101781.25;5057595;28;57660;-61
2023/12/03 07:52:27;;;;;;;;;23.25;18.50;;;;;2.47;59.49;101776.00;5056739;28;47157;-61
2023/12/03 07:54:52;;;;;;;;;25.50;23.00;;;;;2.44;60.34;101766.38;5056825;28;71757;-62
2023/12/03 07:57:17;;;;;;;;;24.25;21.25;;;;;2.48;60.31;101752.34;5061654;28;45873;-62
2023/12/03 07:59:44;;;;;;;;;28.50;23.75;;;;;2.53;60.80;101767.22;5060757;28;67230;-61
2023/12/03 08:02:09;;;;;;;;;32.25;20.50;;;;;2.55;61.00;101753.22;5093652;27;47758;-62
2023/12/03 08:04:35;;;;;;;;;21.50;17.25;;;;;2.55;61.41;101741.84;5062509;28;45347;-61
2023/12/03 08:07:00;;;;;;;;;24.75;19.50;;;;;2.55;61.49;101745.34;5058694;28;68823;-62
2023/12/03 08:09:25;;;;;;;;;30.25;19.50;;;;;2.55;61.38;101736.59;5061819;28;45473;-61
2023/12/03 08:11:50;;;;;;;;;30.25;24.00;;;;;2.54;61.33;101740.94;5059459;28;74861;-61
2023/12/03 08:14:16;;;;;;;;;31.75;22.50;;;;;2.51;61.58;101734.84;5060840;28;45687;-61
2023/12/03 08:16:41;;;;;;;;;26.75;19.25;;;;;2.43;61.38;101743.59;5061574;28;45571;-61
2023/12/03 08:19:06;;;;;;;;;26.00;19.00;;;;;2.28;61.52;101740.97;5067843;28;45642;-60
2023/12/03 08:21:33;;;;;;;;;29.25;22.25;;;;;2.31;61.82;101738.38;5062387;28;59618;-61
2023/12/03 08:23:59;;;;;;;;;27.50;23.50;;;;;2.28;62.37;101719.97;5040927;28;45395;-62
2023/12/03 08:26:24;;;;;;;;;29.00;23.00;;;;;2.25;61.86;101738.38;5064973;28;67853;-62
2023/12/03 08:28:50;;;;;;;;;31.25;18.50;;;;;2.27;62.14;101731.38;5058464;28;45621;-63
2023/12/03 08:31:15;;;;;;;;;27.75;24.75;;;;;2.26;61.69;101727.84;5059198;28;46989;-62
2023/12/03 08:33:40;;;;;;;;;24.50;22.25;;;;;2.25;62.20;101736.59;5062749;28;73341;-62
2023/12/03 08:36:06;;;;;;;;;28.25;23.00;;;;;2.27;61.92;101736.63;5066174;28;45224;-63
2023/12/03 08:38:31;;;;;;;;;30.00;23.25;;;;;2.23;61.52;101734.84;5060655;28;45786;-62
2023/12/03 08:40:57;;;;;;;;;23.75;21.50;;;;;2.17;61.96;101733.13;5065814;28;75705;-63
2023/12/03 08:43:22;;;;;;;;;28.75;23.50;;;;;2.15;62.20;101735.75;5058941;28;72496;-63
2023/12/03 08:45:47;;;;;;;;;27.50;21.75;;;;;2.19;61.95;101739.25;5061322;28;69377;-63
2023/12/03 08:48:13;;;;;;;;;23.25;20.00;;;;;2.23;61.78;101732.22;5061589;28;68855;-62
2023/12/03 08:50:38;;;;;;;;;28.50;23.50;;;;;2.27;61.74;101729.63;5060712;28;69288;-63
2023/12/03 08:53:04;;;;;;;;;27.00;22.50;;;;;2.33;61.63;101739.22;5059605;28;45336;-61
2023/12/03 08:55:31;;;;;;;;;23.25;21.00;;;;;2.29;61.50;101735.75;5059898;28;45386;-61
2023/12/03 08:57:57;;;;;;;;;27.25;24.50;;;;;2.30;61.88;101740.09;5059381;28;46809;-61
2023/12/03 09:00:22;;;;;;;;;28.50;26.50;;;;;2.27;61.30;101729.63;5059777;28;74601;-61
2023/12/03 09:02:47;;;;;;;;;24.25;23.50;;;;;2.34;61.71;101711.25;5059622;28;73345;-61
2023/12/03 09:05:13;;;;;;;;;20.75;18.75;;;;;2.35;61.61;101712.97;5060608;28;45476;-61
2023/12/03 09:07:39;;;;;;;;;29.25;19.50;;;;;2.29;61.04;101721.72;5059996;28;45453;-62
2023/12/03 09:10:05;;;;;;;;;24.25;18.00;;;;;2.23;61.20;101720.00;5060200;28;46557;-61
2023/12/03 09:12:30;;;;;;;;;29.50;19.75;;;;;2.15;61.79;101730.50;5060421;28;45315;-62
2023/12/03 09:14:56;;;;;;;;;20.25;15.25;;;;;2.16;61.50;101726.13;5059244;28;69284;-61
2023/12/03 09:17:21;;;;;;;;;35.00;25.25;;;;;2.23;61.13;101724.34;5059850;28;69599;-62
2023/12/03 09:19:46;;;;;;;;;22.50;22.00;;;;;2.24;61.43;101716.50;5060503;28;46287;-65
2023/12/03 09:22:12;;;;;;;;;27.00;18.00;;;;;2.28;61.27;101713.00;5065893;28;59635;-62
2023/12/03 09:24:37;;;;;;;;;22.75;16.25;;;;;2.29;61.07;101726.97;5057711;28;69272;-62
2023/12/03 09:27:03;;;;;;;;;22.75;19.00;;;;;2.36;61.01;101722.59;5058236;28;45308;-61
2023/12/03 09:29:28;;;;;;;;;21.50;17.00;;;;;2.39;61.00;101718.22;5059951;28;46641;-61
2023/12/03 09:31:53;;;;;;;;;21.00;16.50;;;;;2.43;60.94;101703.34;5058912;28;73031;-61
2023/12/03 09:34:19;;;;;;;;;35.75;25.75;;;;;2.42;60.44;101710.31;5059258;28;68312;-61
2023/12/03 09:36:44;;;;;;;;;32.50;21.75;;;;;2.42;60.45;101697.19;5059753;28;45564;-62
2023/12/03 09:39:09;;;;;;;;;21.00;21.00;;;;;2.37;60.28;101704.22;5059118;28;57129;-62
2023/12/03 09:41:42;;;;;;;;;21.25;18.00;;;;;2.38;60.03;101702.47;5059921;28;45461;-60
2023/12/03 09:44:26;;;;;;;;;26.25;22.25;;;;;2.36;60.43;101706.84;5058246;28;45435;-62
2023/12/03 09:46:53;;;;;;;;;23.00;20.25;;;;;2.35;60.35;101718.22;5044564;28;45407;-62
2023/12/03 09:49:22;;;;;;;;;26.00;21.75;;;;;2.34;60.48;101712.09;5056249;28;47258;-62
2023/12/03 09:51:47;;;;;;;;;27.75;18.75;;;;;2.40;60.43;101712.09;5059657;28;45314;-61
2023/12/03 09:54:12;;;;;;;;;33.50;23.50;;;;;2.43;60.02;101712.09;5058339;28;68289;-61
2023/12/03 09:56:40;;;;;;;;;23.25;19.00;;;;;2.53;60.26;101717.31;5059574;28;53544;-62
2023/12/03 09:59:09;;;;;;;;;17.50;17.00;;;;;2.63;60.25;101717.31;5055764;28;46346;-63
2023/12/03 10:01:37;;;;;;;;;22.75;22.00;;;;;2.70;59.83;101715.53;5086121;27;46670;-61
2023/12/03 10:04:03;;;;;;;;;21.75;15.75;;;;;2.73;59.64;101718.16;5056050;28;45410;-62
2023/12/03 10:06:28;;;;;;;;;23.50;19.50;;;;;2.81;59.55;101715.50;5058362;28;46432;-62
2023/12/03 10:08:53;;;;;;;;;28.25;25.75;;;;;2.87;59.47;101715.50;5057631;28;50889;-63
2023/12/03 10:11:25;;;;;;;;;26.00;21.25;;;;;2.90;59.62;101720.72;5058250;28;69184;-63
2023/12/03 10:13:53;;;;;;;;;21.50;18.00;;;;;2.98;59.64;101728.59;5059477;28;45457;-62
2023/12/03 10:16:20;;;;;;;;;19.25;15.75;;;;;3.09;59.52;101723.28;5059757;28;45421;-62
2023/12/03 10:18:45;;;;;;;;;28.00;23.75;;;;;3.09;58.46;101723.28;5058598;28;46182;-62
2023/12/03 10:21:11;;;;;;;;;18.00;18.00;;;;;3.07;58.98;101711.91;5062046;28;45378;-62
2023/12/03 10:23:37;;;;;;;;;25.00;18.75;;;;;3.05;58.23;101706.66;5059089;28;45587;-63
2023/12/03 10:26:13;;;;;;;;;28.50;19.50;;;;;3.05;58.79;101695.25;5056161;28;45508;-63
2023/12/03 10:28:42;;;;;;;;;24.00;19.75;;;;;3.04;59.01;101691.75;5058798;28;45241;-63
2023/12/03 10:31:11;;;;;;;;;27.00;21.25;;;;;3.00;59.14;101687.41;5057967;28;45687;-62
2023/12/03 10:33:37;;;;;;;;;29.75;23.00;;;;;3.01;59.04;101690.91;5057633;28;45528;-63
2023/12/03 10:36:03;;;;;;;;;24.25;24.25;;;;;3.00;58.94;101690.03;5050674;28;45612;-63
2023/12/03 10:38:41;;;;;;;;;22.25;19.50;;;;;2.98;59.30;101684.75;5057499;28;46231;-63
2023/12/03 10:41:08;;;;;;;;;25.75;19.00;;;;;3.04;59.19;101678.63;5058878;28;45357;-62
2023/12/03 10:43:37;;;;;;;;;28.00;19.75;;;;;3.10;59.01;101681.22;5058532;28;45394;-63
2023/12/03 10:46:09;;;;;;;;;23.50;20.00;;;;;3.18;59.54;101677.66;5055413;28;46414;-62
2023/12/03 10:48:35;;;;;;;;;23.50;22.50;;;;;3.23;58.73;101679.38;5058564;28;45252;-62
2023/12/03 10:51:05;;;;;;;;;20.00;15.00;;;;;3.14;58.36;101684.69;5039653;28;69426;-62
2023/12/03 10:53:31;;;;;;;;;32.00;20.25;;;;;3.14;58.56;101669.81;5062164;28;45670;-61
2023/12/03 10:55:57;;;;;;;;;24.00;20.00;;;;;3.24;59.15;101670.63;5058152;28;45341;-61
2023/12/03 10:58:22;;;;;;;;;31.50;23.25;;;;;3.33;58.41;101659.19;5055092;28;64316;-61
2023/12/03 11:00:51;;;;;;;;;20.50;17.25;;;;;3.32;58.53;101649.53;5057726;28;45339;-63
2023/12/03 11:03:43;;;;;;;;;31.25;19.50;;;;;3.41;58.09;101645.97;5054551;28;45460;-61
2023/12/03 11:06:09;;;;;;;;;21.75;18.75;;;;;3.52;58.27;101638.00;5087323;27;45387;-63
2023/12/03 11:08:35;;;;;;;;;10.00;8.50;;;;;3.67;58.60;101635.25;5056652;28;47012;-63
2023/12/03 11:11:01;;;;;;;;;26.25;23.50;;;;;3.77;57.87;101625.53;5057175;28;73371;-62